Time;durP1;ratioP1;P1;durP2;ratioP2;P2;SDS_P1;SDS_P2;PMS_P1;PMS_P2;Temp;Humidity;BMP_temperature;BMP_pressure;BME280_temperature;BME280_humidity;BME280_pressure;Samples;Min_cycle;Max_cycle;Signal;HPM_P1;HPM_P2
2021/04/29 15:25:24;;;;;;;11.45;2.08;;;;;;;23.53;95.12;157325.52;1847090;76;25130;-90
2021/04/29 15:27:58;;;;;;;4.15;1.85;;;;;;;33.10;47.21;159887.56;1815225;79;21698;-89
2021/04/29 15:30:31;;;;;;;3.25;2.08;;;;;;;34.51;40.40;160265.69;1793953;79;21441;-89
2021/04/29 15:33:03;;;;;;;8.38;2.17;;;;;;;34.82;38.24;160349.97;1781582;80;21328;-92
2021/04/29 15:35:35;;;;;;;12.58;3.12;;;;;;;35.22;36.72;160456.94;1781288;80;21222;-90
2021/04/29 15:38:08;;;;;;;4.72;2.10;;;;;;;35.63;35.60;160566.69;1754891;80;21213;-90
2021/04/29 15:40:40;;;;;;;2.05;1.57;;;;;;;35.93;34.62;160646.92;1750987;80;21687;-90
2021/04/29 15:43:12;;;;;;;4.67;2.05;;;;;;;36.19;33.86;160717.86;1750582;82;21314;-91
2021/04/29 15:45:44;;;;;;;4.80;2.12;;;;;;;36.57;33.14;160821.00;1757577;80;21629;-92
2021/04/29 15:48:17;;;;;;;4.95;2.15;;;;;;;36.52;32.96;160807.59;1754004;80;21197;-90
2021/04/29 15:50:49;;;;;;;4.22;2.15;;;;;;;36.59;32.71;160825.00;1701337;82;21791;-89
2021/04/29 15:53:21;;;;;;;4.50;2.22;;;;;;;36.90;32.31;160908.02;1712742;82;21232;-88
2021/04/29 15:55:53;;;;;;;3.55;1.90;;;;;;;37.11;31.95;160966.91;1758084;80;21304;-89
2021/04/29 15:58:26;;;;;;;2.40;1.75;;;;;;;37.09;31.68;160961.56;1757397;79;21201;-88
2021/04/29 16:00:58;;;;;;;5.20;1.87;;;;;;;37.06;31.39;160952.19;1760268;80;21166;-84
2021/04/29 16:03:31;;;;;;;2.62;1.90;;;;;;;37.02;31.27;160940.16;1760028;80;21332;-88
2021/04/29 16:06:03;;;;;;;4.03;2.10;;;;;;;37.13;31.02;160970.97;1758365;80;21316;-87
2021/04/29 16:08:37;;;;;;;3.45;2.27;;;;;;;37.15;30.81;160977.64;1766445;80;21221;-87
2021/04/29 16:11:10;;;;;;;5.00;2.65;;;;;;;37.09;30.80;160961.56;1752787;80;21234;-87
2021/04/29 16:13:43;;;;;;;4.50;2.47;;;;;;;37.29;30.53;161013.78;1755906;79;21387;-87
2021/04/29 16:16:15;;;;;;;5.85;2.75;;;;;;;37.35;30.33;161031.25;1753255;80;21328;-88
2021/04/29 16:18:48;;;;;;;6.22;2.35;;;;;;;37.28;30.26;161011.09;1761129;80;21320;-88
2021/04/29 16:21:20;;;;;;;4.53;2.20;;;;;;;37.33;30.22;161024.50;1753297;80;21225;-87
2021/04/29 16:23:53;;;;;;;4.72;2.58;;;;;;;37.19;30.09;160988.37;1762402;80;21379;-88
2021/04/29 16:26:25;;;;;;;3.17;2.40;;;;;;;37.06;30.09;160953.56;1742503;80;21369;-87
2021/04/29 16:28:58;;;;;;;3.00;2.27;;;;;;;36.83;30.17;160889.25;1741555;81;21170;-85
2021/04/29 16:31:30;;;;;;;3.05;2.05;;;;;;;36.81;30.11;160885.20;1744263;80;21269;-86
2021/04/29 16:34:03;;;;;;;2.70;2.02;;;;;;;36.59;30.24;160825.00;1741475;80;21265;-88
2021/04/29 16:36:36;;;;;;;4.42;2.30;;;;;;;36.47;30.29;160792.88;1739465;80;21376;-85
2021/04/29 16:39:08;;;;;;;3.40;2.05;;;;;;;36.41;30.29;160778.09;1740516;81;21175;-85
2021/04/29 16:41:42;;;;;;;2.40;1.90;;;;;;;36.38;30.27;160770.06;1744583;81;21218;-86
2021/04/29 16:44:15;;;;;;;2.90;2.30;;;;;;;36.25;30.32;160735.27;1741378;81;21732;-88
2021/04/29 16:46:47;;;;;;;2.25;2.05;;;;;;;36.23;30.33;160729.91;1745984;80;22071;-87
2021/04/29 16:49:20;;;;;;;4.67;1.87;;;;;;;36.28;30.25;160743.31;1755295;81;21420;-86
2021/04/29 16:51:52;;;;;;;3.42;2.33;;;;;;;36.31;30.13;160749.98;1750907;80;21234;-87
2021/04/29 16:54:24;;;;;;;3.37;2.35;;;;;;;36.22;30.22;160725.91;1749020;81;21289;-87
2021/04/29 16:56:57;;;;;;;3.10;2.42;;;;;;;36.17;30.30;160713.87;1752369;80;21802;-87
2021/04/29 16:59:30;;;;;;;2.47;2.00;;;;;;;36.16;30.36;160709.87;1747431;81;21867;-87
2021/04/29 17:02:03;;;;;;;2.98;2.30;;;;;;;36.17;30.38;160713.87;1751663;81;21301;-88
2021/04/29 17:04:37;;;;;;;3.22;2.20;;;;;;;36.22;30.33;160727.28;1745072;80;21178;-87
2021/04/29 17:07:11;;;;;;;4.15;2.42;;;;;;;36.25;30.27;160735.27;1754044;81;21198;-85
2021/04/29 17:09:44;;;;;;;2.75;2.05;;;;;;;36.25;30.28;160735.27;1744832;81;22122;-87
2021/04/29 17:12:17;;;;;;;2.92;2.05;;;;;;;36.25;30.24;160733.95;1753637;80;21245;-84
2021/04/29 17:14:50;;;;;;;4.08;2.55;;;;;;;36.29;30.20;160744.63;1751992;81;21823;-83
2021/04/29 17:17:22;;;;;;;4.67;3.05;;;;;;;36.27;30.20;160739.31;1752596;81;21356;-87
2021/04/29 17:19:55;;;;;;;4.65;2.30;;;;;;;36.19;30.20;160719.23;1743987;81;21267;-83
2021/04/29 17:22:28;;;;;;;4.28;2.62;;;;;;;36.16;30.22;160711.19;1741019;80;21250;-85
2021/04/29 17:25:16;;;;;;;4.08;2.30;;;;;;;36.09;30.28;160691.11;1745904;81;21159;-82
2021/04/29 17:27:48;;;;;;;4.30;3.50;;;;;;;36.05;30.29;160680.44;1741902;81;21321;-84
2021/04/29 17:30:22;;;;;;;3.33;2.80;;;;;;;36.10;30.24;160695.16;1743984;81;21399;-84
2021/04/29 17:32:55;;;;;;;3.77;2.70;;;;;;;36.18;30.15;160715.19;1741880;81;21799;-83
2021/04/29 17:35:28;;;;;;;3.47;2.77;;;;;;;36.15;30.12;160708.50;1743807;81;21747;-84
2021/04/29 17:38:01;;;;;;;6.25;2.72;;;;;;;36.00;30.22;160665.67;1742791;81;21395;-86
2021/04/29 17:40:33;;;;;;;4.17;3.08;;;;;;;36.07;30.18;160684.44;1742164;81;21887;-84
2021/04/29 17:43:06;;;;;;;5.03;3.12;;;;;;;36.13;30.09;160703.16;1739626;80;21214;-85
2021/04/29 17:45:39;;;;;;;4.05;2.77;;;;;;;36.07;30.10;160685.75;1742845;80;21383;-84
2021/04/29 17:48:13;;;;;;;4.60;2.70;;;;;;;36.04;30.13;160676.41;1742691;81;21368;-83
2021/04/29 17:50:46;;;;;;;5.37;2.90;;;;;;;36.02;30.13;160671.03;1744830;81;21376;-83
2021/04/29 17:53:18;;;;;;;3.58;2.62;;;;;;;36.05;30.11;160679.08;1744264;80;21800;-83
2021/04/29 17:55:51;;;;;;;6.25;2.83;;;;;;;36.02;30.07;160671.03;1745901;81;21356;-83
2021/04/29 17:58:23;;;;;;;6.03;3.08;;;;;;;35.98;30.10;160661.62;1743828;80;21261;-83
2021/04/29 18:00:58;;;;;;;6.03;3.35;;;;;;;35.99;30.08;160663.05;1746090;81;21384;-84
2021/04/29 18:03:31;;;;;;;4.15;2.98;;;;;;;36.03;30.02;160675.09;1748137;80;21436;-85
2021/04/29 18:06:04;;;;;;;5.65;3.05;;;;;;;36.07;30.00;160684.44;1748198;81;21364;-82
2021/04/29 18:08:38;;;;;;;4.17;3.12;;;;;;;36.06;29.98;160681.75;1744780;81;21447;-83
2021/04/29 18:11:11;;;;;;;5.78;2.90;;;;;;;36.01;29.97;160669.72;1750988;81;21356;-85
2021/04/29 18:13:44;;;;;;;5.53;3.30;;;;;;;35.91;30.01;160641.56;1749991;80;21360;-83
2021/04/29 18:16:17;;;;;;;4.85;3.60;;;;;;;35.89;30.05;160637.56;1749851;81;21313;-82
2021/04/29 18:18:49;;;;;;;11.75;4.42;;;;;;;35.62;30.24;160565.31;1745725;81;21371;-84
2021/04/29 18:21:22;;;;;;;14.28;6.12;;;;;;;35.60;30.33;160559.95;1745434;81;21375;-87
2021/04/29 18:23:54;;;;;;;15.85;6.65;;;;;;;35.56;30.48;160547.92;1745699;80;21461;-83
2021/04/29 18:26:28;;;;;;;14.83;6.67;;;;;;;35.62;30.42;160564.00;1746259;80;21713;-83
2021/04/29 18:29:01;;;;;;;15.38;6.55;;;;;;;35.57;30.45;160550.59;1752678;81;21697;-83
2021/04/29 18:31:34;;;;;;;19.00;8.10;;;;;;;35.56;30.41;160547.92;1752911;79;21273;-83
2021/04/29 18:34:07;;;;;;;14.15;9.00;;;;;;;35.59;30.40;160555.97;1749681;81;21360;-83
2021/04/29 18:36:40;;;;;;;17.20;8.93;;;;;;;35.38;30.55;160499.75;1750672;79;21834;-86
2021/04/29 18:39:12;;;;;;;17.52;9.68;;;;;;;35.37;30.56;160497.06;1749572;81;21838;-87
2021/04/29 18:41:46;;;;;;;30.02;10.65;;;;;;;35.41;30.50;160507.78;1757275;81;21364;-87
2021/04/29 18:44:19;;;;;;;22.30;9.93;;;;;;;35.15;30.71;160438.25;1752852;79;21202;-85
2021/04/29 18:46:51;;;;;;;23.75;11.05;;;;;;;35.36;30.59;160494.39;1755543;81;21772;-82
2021/04/29 18:49:24;;;;;;;18.00;10.20;;;;;;;35.34;30.55;160490.41;1753364;81;21245;-87
2021/04/29 18:51:57;;;;;;;15.38;10.65;;;;;;;35.35;30.54;160491.72;1758334;79;21403;-85
2021/04/29 18:54:31;;;;;;;17.55;11.68;;;;;;;35.41;30.43;160509.09;1756044;79;21368;-85
2021/04/29 18:57:04;;;;;;;20.27;11.78;;;;;;;35.24;30.59;160462.30;1753920;81;21651;-85
2021/04/29 18:59:38;;;;;;;20.05;11.55;;;;;;;35.18;30.62;160447.59;1747806;81;21372;-86
2021/04/29 19:02:10;;;;;;;19.40;12.13;;;;;;;35.26;30.57;160467.66;1749705;81;21368;-87
2021/04/29 19:04:43;;;;;;;17.52;10.80;;;;;;;35.13;30.71;160432.88;1747846;81;21364;-89
2021/04/29 19:07:16;;;;;;;17.45;10.82;;;;;;;35.16;30.65;160440.92;1752608;81;21217;-88
2021/04/29 19:09:48;;;;;;;18.02;11.57;;;;;;;35.14;30.67;160435.56;1747549;81;21178;-85
2021/04/29 19:12:22;;;;;;;14.93;10.28;;;;;;;35.07;30.70;160415.50;1747048;81;21142;-87
2021/04/29 19:15:01;;;;;;;14.95;10.65;;;;;;;35.13;30.69;160432.88;1749063;79;21380;-84
2021/04/29 19:17:29;;;;;;;15.85;10.40;;;;;;;35.13;30.64;160431.56;1746805;81;21359;-85
2021/04/29 19:20:03;;;;;;;15.10;10.68;;;;;;;35.22;30.56;160458.31;1748509;81;21504;-88
2021/04/29 19:22:36;;;;;;;15.13;10.50;;;;;;;35.20;30.58;160451.58;1757306;81;21194;-86
2021/04/29 19:25:10;;;;;;;15.18;10.70;;;;;;;35.13;30.66;160434.19;1750888;81;21317;-84
2021/04/29 19:27:42;;;;;;;15.18;9.75;;;;;;;35.20;30.56;160451.58;1756310;79;21380;-86
2021/04/29 19:30:18;;;;;;;15.28;10.63;;;;;;;35.31;30.49;160481.00;1767314;79;21430;-85
2021/04/29 19:32:53;;;;;;;14.47;11.05;;;;;;;35.16;30.58;160440.92;1776184;80;21395;-85
2021/04/29 19:35:26;;;;;;;13.08;9.48;;;;;;;35.24;30.49;160463.61;1773550;79;22395;-86
2021/04/29 19:37:59;;;;;;;12.98;9.95;;;;;;;35.16;30.53;160442.23;1772386;80;21218;-81
2021/04/29 19:40:32;;;;;;;14.47;10.05;;;;;;;35.23;30.51;160459.63;1781494;80;21177;-85
2021/04/29 19:43:09;;;;;;;15.40;10.85;;;;;;;35.11;30.57;160427.53;1771750;79;21260;-83
2021/04/29 19:45:41;;;;;;;14.80;10.55;;;;;;;35.07;30.61;160416.81;1772852;80;21779;-83
2021/04/29 19:48:13;;;;;;;12.95;10.05;;;;;;;35.11;30.58;160426.22;1761609;80;21260;-85
2021/04/29 19:50:47;;;;;;;14.63;9.73;;;;;;;35.34;30.32;160490.41;1781691;80;21331;-84
2021/04/29 19:53:20;;;;;;;16.23;10.25;;;;;;;35.44;30.27;160515.78;1767839;80;21363;-89
2021/04/29 19:55:53;;;;;;;15.65;10.43;;;;;;;35.62;30.11;160564.00;1771185;79;21367;-85
2021/04/29 19:58:26;;;;;;;15.90;10.75;;;;;;;35.56;30.08;160547.92;1773143;79;21150;-84
2021/04/29 20:00:58;;;;;;;12.20;9.15;;;;;;;35.54;30.08;160543.94;1765417;80;21174;-84
2021/04/29 20:03:31;;;;;;;12.78;10.05;;;;;;;35.62;29.97;160565.31;1769817;80;21232;-88
2021/04/29 20:06:03;;;;;;;15.88;9.98;;;;;;;35.65;29.96;160572.03;1764980;79;21265;-86
2021/04/29 20:08:37;;;;;;;15.30;9.78;;;;;;;35.55;29.99;160545.25;1762625;80;21380;-86
2021/04/29 20:11:10;;;;;;;13.68;8.98;;;;;;;35.52;30.00;160537.27;1772255;79;21303;-82
2021/04/29 20:13:43;;;;;;;12.45;8.30;;;;;;;35.47;30.04;160523.81;1767271;80;21236;-87
2021/04/29 20:16:16;;;;;;;11.60;8.70;;;;;;;35.49;29.96;160530.48;1765398;80;21857;-88
2021/04/29 20:18:50;;;;;;;16.77;8.95;;;;;;;35.44;30.01;160515.78;1762053;80;21847;-87
2021/04/29 20:21:23;;;;;;;11.95;8.10;;;;;;;35.41;30.03;160507.78;1773602;79;21379;-82
2021/04/29 20:23:56;;;;;;;13.32;7.78;;;;;;;35.36;30.07;160494.39;1764699;80;21218;-84
2021/04/29 20:26:28;;;;;;;10.93;7.70;;;;;;;35.39;30.03;160502.42;1767356;80;21373;-84
2021/04/29 20:29:01;;;;;;;11.33;7.53;;;;;;;35.32;30.05;160485.03;1767169;80;21335;-81
2021/04/29 20:31:33;;;;;;;9.45;7.22;;;;;;;35.30;30.06;160479.69;1745049;81;21796;-85
2021/04/29 20:34:07;;;;;;;10.23;7.35;;;;;;;35.59;29.87;160555.97;1746506;80;21395;-85
2021/04/29 20:36:40;;;;;;;9.00;6.53;;;;;;;35.42;29.92;160511.78;1757523;80;21238;-85
2021/04/29 20:39:12;;;;;;;8.98;5.85;;;;;;;35.39;30.00;160503.75;1745932;81;21680;-84
2021/04/29 20:41:50;;;;;;;11.80;6.28;;;;;;;35.36;29.94;160495.70;1747843;80;21273;-82
2021/04/29 20:44:30;;;;;;;7.25;5.00;;;;;;;35.40;29.90;160505.11;1746736;81;21743;-85
2021/04/29 20:47:05;;;;;;;7.75;5.83;;;;;;;35.41;29.89;160509.09;1744491;80;21693;-84
2021/04/29 20:49:38;;;;;;;7.62;5.40;;;;;;;35.45;29.89;160518.45;1740446;81;21764;-82
2021/04/29 20:52:12;;;;;;;6.72;5.30;;;;;;;35.39;29.89;160502.42;1741173;81;21222;-83
2021/04/29 20:54:44;;;;;;;9.35;6.20;;;;;;;35.41;29.88;160509.09;1743056;80;21371;-83
2021/04/29 20:57:20;;;;;;;10.70;5.00;;;;;;;35.67;29.70;160578.72;1749200;80;21875;-82
2021/04/29 21:00:09;;;;;;;7.50;4.80;;;;;;;35.36;29.89;160495.70;1751948;81;21383;-83
2021/04/29 21:02:47;;;;;;;8.23;5.10;;;;;;;35.30;29.94;160478.38;1747278;81;21360;-84
2021/04/29 21:05:25;;;;;;;4.87;4.20;;;;;;;35.26;30.01;160467.66;1737364;81;21364;-81
2021/04/29 21:08:02;;;;;;;6.33;4.50;;;;;;;35.37;29.90;160498.38;1742330;81;21225;-82
2021/04/29 21:10:35;;;;;;;8.00;4.55;;;;;;;35.34;29.94;160489.03;1745322;81;21190;-85
2021/04/29 21:13:08;;;;;;;6.00;4.30;;;;;;;35.20;30.06;160452.95;1750633;80;22242;-85
2021/04/29 21:15:40;;;;;;;5.28;4.08;;;;;;;35.17;30.10;160443.59;1739844;80;21407;-82
2021/04/29 21:18:14;;;;;;;5.90;4.10;;;;;;;35.41;29.86;160507.78;1742496;81;21220;-83
2021/04/29 21:20:48;;;;;;;5.03;3.77;;;;;;;35.43;29.91;160514.45;1741583;81;21552;-85
2021/04/29 21:23:20;;;;;;;6.62;4.22;;;;;;;35.45;29.91;160518.45;1710427;81;21289;-87
2021/04/29 21:25:53;;;;;;;6.15;4.08;;;;;;;35.46;29.88;160522.50;1744806;80;21345;-86
2021/04/29 21:28:42;;;;;;;5.33;3.58;;;;;;;35.39;29.93;160502.42;1742003;80;21398;-86
2021/04/29 21:31:28;;;;;;;4.35;3.20;;;;;;;35.39;29.93;160502.42;1757436;79;21221;-87
2021/04/29 21:34:04;;;;;;;6.20;3.77;;;;;;;35.39;29.94;160503.75;1764922;79;21280;-84
2021/04/29 21:36:37;;;;;;;5.40;3.37;;;;;;;35.26;30.07;160467.66;1762429;79;21221;-83
2021/04/29 21:39:09;;;;;;;5.97;3.30;;;;;;;35.28;30.12;160474.33;1760831;80;21225;-86
2021/04/29 21:41:44;;;;;;;5.45;3.30;;;;;;;35.39;30.06;160502.42;1758164;80;21206;-85
2021/04/29 21:44:17;;;;;;;7.20;4.00;;;;;;;35.37;30.04;160498.38;1754672;79;21423;-84
2021/04/29 21:46:50;;;;;;;5.58;3.25;;;;;;;35.31;30.13;160482.36;1757274;80;21284;-85
2021/04/29 21:49:23;;;;;;;6.92;3.60;;;;;;;35.42;30.01;160510.41;1756471;80;21205;-84
2021/04/29 21:51:56;;;;;;;5.33;3.50;;;;;;;35.46;30.01;160521.13;1757561;80;21210;-84
2021/04/29 21:54:29;;;;;;;7.62;4.00;;;;;;;35.43;30.03;160513.09;1760885;79;21197;-84
2021/04/29 21:57:01;;;;;;;7.10;4.15;;;;;;;35.37;30.04;160497.06;1760376;80;21229;-84
2021/04/29 21:59:34;;;;;;;5.58;3.25;;;;;;;35.35;30.10;160493.08;1762347;80;21241;-85
2021/04/29 22:02:07;;;;;;;4.62;3.08;;;;;;;35.26;30.16;160467.66;1765427;79;21253;-84
2021/04/29 22:04:40;;;;;;;4.83;3.20;;;;;;;35.29;30.16;160477.00;1756557;80;21881;-84
2021/04/29 22:07:16;;;;;;;4.17;3.20;;;;;;;35.33;30.15;160486.36;1758036;79;21166;-83
2021/04/29 22:09:49;;;;;;;5.00;3.27;;;;;;;35.40;30.04;160505.11;1755633;80;21166;-82
2021/04/29 22:12:22;;;;;;;4.97;3.50;;;;;;;35.39;30.05;160503.75;1758323;80;21834;-86
2021/04/29 22:14:55;;;;;;;4.42;3.12;;;;;;;35.42;30.03;160511.78;1759278;80;21853;-85
2021/04/29 22:17:27;;;;;;;4.60;3.22;;;;;;;35.41;30.08;160507.78;1761036;80;21405;-85
2021/04/29 22:20:00;;;;;;;4.80;3.33;;;;;;;35.31;30.13;160481.00;1757869;80;21367;-87
2021/04/29 22:22:33;;;;;;;5.35;2.92;;;;;;;35.31;30.10;160481.00;1763957;80;21945;-87
2021/04/29 22:25:07;;;;;;;4.42;3.27;;;;;;;35.36;30.09;160494.39;1760638;80;21355;-89
2021/04/29 22:27:40;;;;;;;4.83;3.10;;;;;;;37.30;28.64;161017.83;1759608;79;21229;-85
2021/04/29 22:30:13;;;;;;;4.67;3.37;;;;;;;37.56;28.23;161086.16;1759311;79;21225;-87
2021/04/29 22:32:46;;;;;;;5.28;3.70;;;;;;;37.32;28.35;161021.83;1758604;79;21241;-88
2021/04/29 22:35:19;;;;;;;3.65;2.80;;;;;;;36.25;28.86;160733.95;1762473;79;21896;-87
2021/04/29 22:37:53;;;;;;;5.85;3.27;;;;;;;35.45;29.74;160518.45;1764867;80;21877;-85
2021/04/29 22:40:26;;;;;;;5.55;3.10;;;;;;;35.37;29.87;160497.06;1764758;80;21264;-86
2021/04/29 22:43:00;;;;;;;6.70;3.25;;;;;;;35.28;30.00;160473.00;1765619;80;21720;-85
2021/04/29 22:45:32;;;;;;;5.20;3.08;;;;;;;35.30;30.03;160478.38;1765114;80;21324;-84
2021/04/29 22:48:05;;;;;;;5.25;3.15;;;;;;;35.30;30.05;160478.38;1765670;79;22137;-87
2021/04/29 22:50:38;;;;;;;5.10;3.20;;;;;;;35.30;30.04;160479.69;1742430;80;21360;-88
2021/04/29 22:53:11;;;;;;;3.98;3.00;;;;;;;35.08;30.24;160419.48;1743439;79;21222;-86
2021/04/29 22:55:44;;;;;;;4.33;3.37;;;;;;;35.02;30.29;160402.06;1746059;81;21165;-87
2021/04/29 22:58:16;;;;;;;4.92;3.17;;;;;;;35.02;30.34;160402.06;1744837;81;21364;-88
2021/04/29 23:00:48;;;;;;;4.85;3.15;;;;;;;34.99;30.35;160394.06;1745936;81;21190;-87
2021/04/29 23:03:20;;;;;;;6.65;3.45;;;;;;;35.05;30.31;160410.09;1745186;79;21202;-87
2021/04/29 23:05:54;;;;;;;6.58;3.40;;;;;;;35.16;30.25;160440.92;1744425;81;21906;-87
2021/04/29 23:08:26;;;;;;;5.83;3.52;;;;;;;35.13;30.27;160432.88;1745229;81;21424;-87
2021/04/29 23:11:00;;;;;;;3.70;3.10;;;;;;;35.26;30.20;160467.66;1744021;79;21190;-87
2021/04/29 23:13:34;;;;;;;5.12;3.55;;;;;;;35.29;30.14;160475.69;1745807;81;21246;-84
2021/04/29 23:16:06;;;;;;;5.62;3.37;;;;;;;35.29;30.16;160475.69;1747031;79;21218;-86
2021/04/29 23:18:39;;;;;;;4.15;3.20;;;;;;;35.25;30.21;160464.97;1744471;79;21238;-87
2021/04/29 23:21:12;;;;;;;4.50;3.45;;;;;;;35.25;30.17;160464.97;1747996;81;21226;-87
2021/04/29 23:23:45;;;;;;;4.70;3.52;;;;;;;35.32;30.12;160483.67;1743796;81;21214;-87
2021/04/29 23:26:17;;;;;;;4.47;3.12;;;;;;;35.34;30.15;160490.41;1744427;81;21189;-85
2021/04/29 23:28:50;;;;;;;4.20;3.30;;;;;;;35.19;30.28;160450.27;1748496;81;21229;-84
2021/04/29 23:31:22;;;;;;;5.92;3.50;;;;;;;35.32;30.24;160483.67;1746286;81;21296;-87
2021/04/29 23:33:55;;;;;;;4.70;3.60;;;;;;;35.38;30.18;160499.75;1742396;79;21253;-86
2021/04/29 23:36:28;;;;;;;6.12;3.52;;;;;;;35.36;30.25;160495.70;1750115;79;21740;-87
2021/04/29 23:39:00;;;;;;;5.50;3.37;;;;;;;35.35;30.22;160491.72;1744037;79;21270;-86
2021/04/29 23:41:33;;;;;;;4.45;3.30;;;;;;;35.22;30.32;160456.94;1751669;81;21179;-85
2021/04/29 23:44:06;;;;;;;4.90;3.10;;;;;;;35.14;30.41;160436.88;1744348;81;21186;-86
2021/04/29 23:46:39;;;;;;;5.28;3.42;;;;;;;35.19;30.38;160448.91;1758487;81;21237;-87
2021/04/29 23:49:11;;;;;;;4.60;3.47;;;;;;;35.12;30.45;160430.20;1742396;81;21695;-86
2021/04/29 23:51:43;;;;;;;4.28;2.90;;;;;;;35.26;30.37;160467.66;1757009;80;21265;-87
2021/04/29 23:54:16;;;;;;;4.40;3.35;;;;;;;35.35;30.31;160491.72;1748369;79;21269;-88
2021/04/29 23:56:49;;;;;;;3.75;3.20;;;;;;;35.13;30.46;160432.88;1744501;81;21221;-87
2021/04/29 23:59:21;;;;;;;5.08;3.60;;;;;;;35.10;30.53;160423.53;1745105;81;21182;-87
